Time;durP1;ratioP1;P1;durP2;ratioP2;P2;SDS_P1;SDS_P2;PMS_P1;PMS_P2;Temp;Humidity;BMP_temperature;BMP_pressure;BME280_temperature;BME280_humidity;BME280_pressure;Samples;Min_cycle;Max_cycle;Signal;HPM_P1;HPM_P2
2023/05/10 00:00:01;;;;;;;1.73;1.50;;;13.10;1.00;;;;;;4980346;28;20188;-41
2023/05/10 00:02:27;;;;;;;1.87;1.53;;;13.10;1.00;;;;;;4978739;28;20197;-40
2023/05/10 00:04:52;;;;;;;1.40;1.30;;;13.10;1.00;;;;;;4961619;28;20211;-39
2023/05/10 00:07:18;;;;;;;3.13;1.70;;;13.20;1.00;;;;;;4979468;28;20511;-42
2023/05/10 00:09:44;;;;;;;3.57;1.30;;;13.10;1.00;;;;;;4979478;28;20215;-40
2023/05/10 00:12:10;;;;;;;1.97;1.10;;;13.10;1.00;;;;;;4980689;28;20239;-41
2023/05/10 00:14:35;;;;;;;1.47;1.27;;;13.10;1.00;;;;;;4947222;28;20180;-39
2023/05/10 00:17:01;;;;;;;2.10;1.77;;;13.20;1.00;;;;;;4980424;28;20219;-39
2023/05/10 00:19:27;;;;;;;1.60;1.10;;;13.20;1.00;;;;;;4980305;28;20266;-40
2023/05/10 00:21:53;;;;;;;1.40;1.00;;;13.20;1.00;;;;;;4980825;28;20446;-42
2023/05/10 00:24:18;;;;;;;1.30;0.77;;;13.10;1.00;;;;;;4980423;28;20537;-40
2023/05/10 00:26:44;;;;;;;0.90;0.63;;;13.00;1.00;;;;;;4980279;28;20204;-40
2023/05/10 00:29:10;;;;;;;1.20;0.57;;;13.00;1.00;;;;;;4979842;28;20661;-40
2023/05/10 00:31:35;;;;;;;0.93;0.47;;;13.00;1.00;;;;;;4979361;28;20196;-41
2023/05/10 00:34:01;;;;;;;1.77;0.60;;;13.00;1.00;;;;;;4980223;28;20181;-40
2023/05/10 00:36:27;;;;;;;0.80;0.50;;;13.00;1.00;;;;;;4979833;28;20199;-40
2023/05/10 00:38:53;;;;;;;0.90;0.50;;;12.90;1.00;;;;;;4980289;28;20263;-40
2023/05/10 00:41:19;;;;;;;1.90;0.50;;;12.90;1.00;;;;;;4979583;28;20775;-41
2023/05/10 00:43:44;;;;;;;6.13;0.83;;;12.80;1.00;;;;;;4979344;28;20622;-39
2023/05/10 00:46:10;;;;;;;2.60;0.40;;;12.80;1.00;;;;;;4962473;28;20189;-40
2023/05/10 00:48:36;;;;;;;1.97;0.47;;;12.80;1.00;;;;;;4963016;28;20183;-42
2023/05/10 00:51:02;;;;;;;1.03;0.60;;;12.70;1.00;;;;;;4979516;28;20570;-41
2023/05/10 00:53:30;;;;;;;0.70;0.30;;;12.70;1.00;;;;;;4970857;28;20290;-40
2023/05/10 00:55:55;;;;;;;0.80;0.30;;;12.70;1.00;;;;;;4978908;28;20576;-40
2023/05/10 00:58:23;;;;;;;0.70;0.40;;;12.70;1.00;;;;;;4962167;28;20550;-41
2023/05/10 01:00:49;;;;;;;1.67;0.37;;;12.60;1.00;;;;;;4979055;28;20264;-39
2023/05/10 01:03:15;;;;;;;0.73;0.33;;;12.60;1.00;;;;;;4979462;28;20725;-41
2023/05/10 01:05:40;;;;;;;0.70;0.30;;;12.60;1.00;;;;;;4979376;28;20431;-43
2023/05/10 01:08:56;;;;;;;1.97;0.40;;;12.50;1.00;;;;;;4979793;28;20180;-40
2023/05/10 01:11:22;;;;;;;3.73;0.50;;;12.50;1.00;;;;;;4979416;28;20185;-41
2023/05/10 01:13:52;;;;;;;1.57;0.40;;;12.50;1.00;;;;;;4979993;28;20416;-39
2023/05/10 01:16:18;;;;;;;0.90;0.40;;;12.60;1.00;;;;;;4978414;28;20172;-42
2023/05/10 01:18:44;;;;;;;0.70;0.30;;;12.60;1.00;;;;;;4978143;28;20431;-40
2023/05/10 01:21:41;;;;;;;1.80;0.40;;;12.60;1.00;;;;;;4978742;28;20195;-40
2023/05/10 01:24:15;;;;;;;0.80;0.40;;;12.50;1.00;;;;;;4979738;28;20746;-39
2023/05/10 01:27:07;;;;;;;0.70;0.30;;;12.50;1.00;;;;;;4979282;28;20744;-41
2023/05/10 01:30:00;;;;;;;1.70;0.50;;;12.50;1.00;;;;;;4962410;28;20741;-41
2023/05/10 01:32:47;;;;;;;0.90;0.47;;;12.40;1.00;;;;;;4979536;28;20518;-42
2023/05/10 01:35:23;;;;;;;1.40;0.47;;;12.40;1.00;;;;;;4979449;28;20551;-40
2023/05/10 01:37:57;;;;;;;1.67;0.70;;;12.40;1.00;;;;;;4978019;28;20415;-40
2023/05/10 01:40:31;;;;;;;0.90;0.43;;;12.30;1.00;;;;;;4977712;28;20810;-43
2023/05/10 01:43:05;;;;;;;1.00;0.60;;;12.30;1.00;;;;;;4975828;28;20446;-40
2023/05/10 01:45:37;;;;;;;0.70;0.30;;;12.30;1.00;;;;;;4977057;28;20458;-40
2023/05/10 01:48:08;;;;;;;1.87;0.77;;;12.30;1.00;;;;;;4976533;28;20455;-39
2023/05/10 01:50:36;;;;;;;1.20;0.50;;;12.30;1.00;;;;;;4976114;28;20468;-39
2023/05/10 01:53:02;;;;;;;1.10;0.37;;;12.30;1.00;;;;;;4976360;28;20971;-40
2023/05/10 01:55:34;;;;;;;1.00;0.70;;;12.20;1.00;;;;;;4960505;28;20431;-40
2023/05/10 01:58:10;;;;;;;2.60;0.60;;;12.20;1.00;;;;;;4978670;28;20446;-39
2023/05/10 02:00:37;;;;;;;2.20;0.50;;;12.20;1.00;;;;;;4962338;28;20441;-40
2023/05/10 02:03:06;;;;;;;2.60;0.60;;;12.20;1.00;;;;;;4978645;28;20698;-40
2023/05/10 02:05:33;;;;;;;1.17;0.70;;;12.20;1.00;;;;;;4979041;28;20427;-40
2023/05/10 02:08:01;;;;;;;0.97;0.57;;;12.20;1.00;;;;;;4961709;28;20541;-40
2023/05/10 02:10:28;;;;;;;0.77;0.40;;;12.20;1.00;;;;;;4961000;28;20482;-40
2023/05/10 02:12:53;;;;;;;0.87;0.50;;;12.10;1.00;;;;;;4977921;28;20691;-40
2023/05/10 02:15:23;;;;;;;1.00;0.60;;;12.10;1.00;;;;;;4961696;28;20427;-39
2023/05/10 02:17:49;;;;;;;1.60;0.70;;;12.10;1.00;;;;;;4945248;28;20836;-40
2023/05/10 02:20:16;;;;;;;0.80;0.50;;;12.10;1.00;;;;;;4979590;28;20446;-41
2023/05/10 02:22:42;;;;;;;0.80;0.40;;;12.10;1.00;;;;;;4961459;28;20427;-41
2023/05/10 02:25:09;;;;;;;1.90;0.80;;;12.10;1.00;;;;;;4978953;28;20416;-39
2023/05/10 02:27:35;;;;;;;0.93;0.63;;;12.00;1.00;;;;;;4961470;28;20427;-41
2023/05/10 02:30:01;;;;;;;0.90;0.57;;;12.00;1.00;;;;;;4961086;28;20471;-40
2023/05/10 02:32:27;;;;;;;1.30;0.67;;;12.00;1.00;;;;;;4961281;28;20690;-42
2023/05/10 02:34:53;;;;;;;1.00;0.87;;;12.00;1.00;;;;;;4978300;28;20475;-40
2023/05/10 02:37:20;;;;;;;1.00;0.73;;;12.00;1.00;;;;;;4959748;28;20482;-40
2023/05/10 02:39:50;;;;;;;1.70;0.90;;;12.00;1.00;;;;;;4977122;28;20430;-41
2023/05/10 02:42:22;;;;;;;2.10;0.80;;;12.00;1.00;;;;;;4960603;28;20455;-40
2023/05/10 02:44:50;;;;;;;1.17;0.93;;;12.00;1.00;;;;;;4977689;28;20448;-39
2023/05/10 02:47:16;;;;;;;1.10;0.90;;;12.00;1.00;;;;;;4959574;28;20432;-41
2023/05/10 02:49:42;;;;;;;1.60;1.30;;;12.00;1.00;;;;;;4975425;28;20905;-39
2023/05/10 02:52:11;;;;;;;1.30;1.00;;;12.00;1.00;;;;;;4975715;28;20411;-41
2023/05/10 02:54:49;;;;;;;1.53;0.90;;;12.00;1.00;;;;;;4975932;28;20416;-40
2023/05/10 02:57:25;;;;;;;1.37;1.03;;;12.00;1.00;;;;;;4959380;28;20412;-40
2023/05/10 02:59:51;;;;;;;1.20;0.83;;;12.10;1.00;;;;;;4976086;28;20420;-40
2023/05/10 03:02:17;;;;;;;1.47;1.10;;;12.10;1.00;;;;;;4977470;28;20448;-41
2023/05/10 03:04:42;;;;;;;1.00;0.77;;;12.00;1.00;;;;;;4978050;28;20493;-41
2023/05/10 03:07:08;;;;;;;1.53;1.07;;;12.00;1.00;;;;;;4978178;28;20259;-41
2023/05/10 03:09:34;;;;;;;1.30;1.00;;;12.00;1.00;;;;;;4977559;28;20204;-40
2023/05/10 03:12:14;;;;;;;1.43;1.23;;;12.00;1.00;;;;;;4977696;28;20220;-41
2023/05/10 03:14:48;;;;;;;1.60;1.17;;;12.00;1.00;;;;;;4977141;28;20443;-39
2023/05/10 03:17:23;;;;;;;1.30;1.10;;;12.10;1.00;;;;;;4976163;28;20408;-38
2023/05/10 03:19:58;;;;;;;1.60;1.17;;;12.10;1.00;;;;;;4959880;28;20426;-41
2023/05/10 03:22:29;;;;;;;2.03;1.00;;;12.10;1.00;;;;;;4976915;28;20537;-39
2023/05/10 03:24:57;;;;;;;1.57;1.30;;;12.10;1.00;;;;;;4963230;28;20435;-40
2023/05/10 03:27:24;;;;;;;1.83;1.10;;;12.10;1.00;;;;;;4979484;28;20852;-40
2023/05/10 03:29:51;;;;;;;1.53;1.13;;;12.20;1.00;;;;;;4962659;28;20478;-41
2023/05/10 03:32:16;;;;;;;1.77;1.13;;;12.20;1.00;;;;;;4980467;28;20443;-39
2023/05/10 03:34:45;;;;;;;1.30;1.10;;;12.20;1.00;;;;;;4963190;28;20679;-40
2023/05/10 03:37:11;;;;;;;4.03;1.73;;;12.20;1.00;;;;;;4978912;28;20176;-38
2023/05/10 03:39:36;;;;;;;1.80;1.40;;;12.10;1.00;;;;;;4979347;28;20855;-40
2023/05/10 03:42:02;;;;;;;1.70;1.43;;;12.10;1.00;;;;;;4980294;28;20225;-39
2023/05/10 03:44:28;;;;;;;2.30;1.27;;;12.10;1.00;;;;;;4980283;28;20341;-41
2023/05/10 03:46:53;;;;;;;1.73;1.03;;;12.20;1.00;;;;;;4978824;28;20211;-40
2023/05/10 03:49:19;;;;;;;2.57;1.60;;;12.10;1.00;;;;;;4979820;28;20257;-42
2023/05/10 03:51:45;;;;;;;2.47;1.30;;;12.10;1.00;;;;;;4979362;28;20176;-41
2023/05/10 03:54:10;;;;;;;1.93;1.70;;;12.10;1.00;;;;;;4980592;28;20658;-40
2023/05/10 03:56:36;;;;;;;2.20;1.37;;;12.10;1.00;;;;;;4981313;28;20176;-41
2023/05/10 03:59:07;;;;;;;3.20;1.50;;;12.00;1.00;;;;;;4980761;28;20251;-40
2023/05/10 04:01:33;;;;;;;2.30;1.40;;;12.00;1.00;;;;;;4980042;28;20275;-41
2023/05/10 04:03:59;;;;;;;1.30;1.10;;;12.00;1.00;;;;;;4963806;28;20431;-39
2023/05/10 04:06:24;;;;;;;2.60;1.30;;;12.00;1.00;;;;;;4979453;28;20424;-40
2023/05/10 04:08:50;;;;;;;2.13;1.67;;;11.90;1.00;;;;;;4978718;28;20259;-40
2023/05/10 04:11:16;;;;;;;1.73;1.33;;;11.90;1.00;;;;;;4978998;28;20176;-41
2023/05/10 04:13:42;;;;;;;1.73;1.60;;;11.80;1.00;;;;;;4979014;28;20192;-39
2023/05/10 04:16:08;;;;;;;1.80;1.27;;;11.80;1.00;;;;;;4979384;28;20172;-40
2023/05/10 04:18:34;;;;;;;1.60;1.30;;;11.80;1.00;;;;;;4978093;28;20498;-40
2023/05/10 04:21:00;;;;;;;2.57;1.70;;;11.80;1.00;;;;;;4978007;28;20424;-42
2023/05/10 04:23:27;;;;;;;2.50;1.50;;;11.80;1.00;;;;;;4978581;28;20181;-40
2023/05/10 04:25:53;;;;;;;1.50;1.37;;;11.90;1.00;;;;;;4975542;28;20262;-40
2023/05/10 04:28:18;;;;;;;1.43;1.30;;;11.90;1.00;;;;;;4958891;28;20443;-40
2023/05/10 04:30:44;;;;;;;1.50;1.30;;;11.90;1.00;;;;;;4976885;28;20219;-40
2023/05/10 04:33:10;;;;;;;2.70;1.57;;;11.90;1.00;;;;;;4978348;28;20181;-39
2023/05/10 04:35:35;;;;;;;2.00;1.20;;;11.90;1.00;;;;;;4975515;28;20169;-40
2023/05/10 04:38:01;;;;;;;3.10;1.57;;;12.00;1.00;;;;;;4976913;28;20176;-41
2023/05/10 04:40:27;;;;;;;2.60;1.50;;;12.00;1.00;;;;;;4977459;28;20180;-40
2023/05/10 04:42:52;;;;;;;2.67;1.50;;;12.00;1.00;;;;;;4977144;28;20350;-39
2023/05/10 04:45:18;;;;;;;1.40;1.30;;;12.10;1.00;;;;;;4977383;28;20172;-41
2023/05/10 04:47:44;;;;;;;2.70;1.50;;;12.10;1.00;;;;;;4976204;28;20181;-40
2023/05/10 04:50:09;;;;;;;3.03;1.57;;;12.20;1.00;;;;;;4976828;28;20204;-41
2023/05/10 04:52:36;;;;;;;1.40;1.30;;;12.20;1.00;;;;;;4977509;28;20278;-41
2023/05/10 04:55:02;;;;;;;1.93;1.50;;;12.20;1.00;;;;;;4976553;28;20255;-40
2023/05/10 04:57:27;;;;;;;1.60;1.47;;;12.30;1.00;;;;;;4975281;28;20838;-43
2023/05/10 04:59:53;;;;;;;1.70;1.13;;;12.40;1.00;;;;;;4973542;28;20420;-42
2023/05/10 05:02:18;;;;;;;3.00;1.40;;;12.40;1.00;;;;;;4973713;28;20586;-41
2023/05/10 05:04:44;;;;;;;1.83;1.30;;;12.40;1.00;;;;;;4973234;28;20394;-41
2023/05/10 05:07:10;;;;;;;1.70;1.60;;;12.40;1.00;;;;;;4974915;28;20177;-40
2023/05/10 05:09:36;;;;;;;1.40;1.27;;;12.50;1.00;;;;;;4974598;28;20209;-39
2023/05/10 05:12:01;;;;;;;1.20;1.10;;;12.50;1.00;;;;;;4973553;28;20573;-41
2023/05/10 05:14:27;;;;;;;2.10;1.30;;;12.60;1.00;;;;;;4973811;28;20335;-41
2023/05/10 05:16:53;;;;;;;2.43;1.10;;;12.70;1.00;;;;;;4974634;28;20492;-42
2023/05/10 05:19:18;;;;;;;3.10;1.43;;;12.60;1.00;;;;;;4972981;28;20180;-40
2023/05/10 05:21:44;;;;;;;4.40;1.43;;;12.70;1.00;;;;;;4971349;28;20177;-38
2023/05/10 05:24:11;;;;;;;2.60;1.50;;;12.70;1.00;;;;;;4970869;28;20250;-39
2023/05/10 05:26:36;;;;;;;1.70;1.43;;;12.70;1.00;;;;;;4971891;28;20177;-38
2023/05/10 05:29:02;;;;;;;4.00;1.60;;;12.70;1.00;;;;;;4972982;28;20423;-40
2023/05/10 05:31:28;;;;;;;2.37;1.27;;;12.60;1.00;;;;;;4969056;28;20381;-39
2023/05/10 05:33:55;;;;;;;2.00;1.63;;;12.50;1.00;;;;;;4972133;28;20752;-39
2023/05/10 05:36:20;;;;;;;3.33;2.00;;;12.60;1.00;;;;;;4971695;28;20849;-38
2023/05/10 05:38:47;;;;;;;1.60;1.33;;;12.60;1.00;;;;;;4969598;28;20809;-40
2023/05/10 05:41:13;;;;;;;1.57;1.30;;;12.60;1.00;;;;;;4971362;28;20275;-41
2023/05/10 05:43:39;;;;;;;2.20;1.67;;;12.60;1.00;;;;;;4954366;28;21151;-39
2023/05/10 05:46:05;;;;;;;2.07;1.30;;;12.60;1.00;;;;;;4970433;28;20255;-39
2023/05/10 05:48:31;;;;;;;2.77;1.50;;;12.70;1.00;;;;;;4973330;28;20227;-39
2023/05/10 05:50:57;;;;;;;2.03;1.53;;;12.80;1.00;;;;;;4972520;28;20296;-41
2023/05/10 05:53:23;;;;;;;1.70;1.40;;;12.90;1.00;;;;;;4971565;28;20753;-39
2023/05/10 05:55:56;;;;;;;2.30;1.50;;;13.00;1.00;;;;;;4970865;28;20420;-40
2023/05/10 05:58:22;;;;;;;2.27;2.07;;;13.10;1.00;;;;;;4972852;28;20476;-40
2023/05/10 06:00:48;;;;;;;1.90;1.40;;;13.20;1.00;;;;;;4979291;28;20909;-42
2023/05/10 06:03:13;;;;;;;3.70;1.47;;;13.30;1.00;;;;;;4980692;28;20689;-40
2023/05/10 06:05:39;;;;;;;2.10;1.63;;;13.40;99.90;;;;;;4977671;28;20804;-41
2023/05/10 06:08:06;;;;;;;1.80;1.30;;;13.50;99.90;;;;;;4992195;28;20188;-40
2023/05/10 06:10:31;;;;;;;1.73;1.63;;;13.60;99.90;;;;;;4994601;28;20211;-40
2023/05/10 06:12:57;;;;;;;2.10;1.70;;;13.60;99.90;;;;;;4993186;28;20427;-40
2023/05/10 06:15:23;;;;;;;2.23;1.70;;;13.60;99.90;;;;;;4993073;28;20557;-39
2023/05/10 06:17:51;;;;;;;3.10;1.60;;;13.60;99.90;;;;;;4993071;28;20556;-40
2023/05/10 06:20:17;;;;;;;2.07;1.80;;;13.60;99.90;;;;;;4992074;28;20274;-41
2023/05/10 06:22:43;;;;;;;2.43;1.80;;;13.60;99.90;;;;;;4991761;28;20846;-39
2023/05/10 06:25:09;;;;;;;3.00;1.63;;;13.60;99.90;;;;;;4993389;28;20188;-41
2023/05/10 06:27:35;;;;;;;2.10;1.67;;;13.60;99.90;;;;;;4993800;28;20462;-40
2023/05/10 06:30:01;;;;;;;3.87;1.73;;;13.50;99.90;;;;;;4995177;28;20475;-40
2023/05/10 06:32:26;;;;;;;1.70;1.60;;;13.50;99.90;;;;;;4990890;28;20576;-40
2023/05/10 06:34:52;;;;;;;1.40;1.30;;;13.50;99.90;;;;;;4992879;28;20529;-39
2023/05/10 06:37:18;;;;;;;1.97;1.50;;;13.50;99.90;;;;;;4991930;28;20179;-39
2023/05/10 06:39:43;;;;;;;2.23;1.30;;;13.40;99.90;;;;;;4991258;28;20199;-39
2023/05/10 06:42:09;;;;;;;2.13;1.80;;;13.20;99.90;;;;;;4990764;28;20194;-39
2023/05/10 06:44:35;;;;;;;5.87;2.13;;;13.20;99.90;;;;;;4990431;28;20184;-41
2023/05/10 06:47:00;;;;;;;2.13;1.63;;;13.20;99.90;;;;;;4990253;28;20427;-39
2023/05/10 06:49:26;;;;;;;2.60;1.57;;;13.20;99.90;;;;;;4989665;28;20203;-39
2023/05/10 06:51:52;;;;;;;4.53;1.90;;;13.30;99.90;;;;;;4992546;28;20195;-40
2023/05/10 06:54:17;;;;;;;3.73;1.60;;;13.40;99.90;;;;;;4993770;28;20289;-40
2023/05/10 06:56:43;;;;;;;2.30;1.80;;;13.60;99.90;;;;;;4992018;28;20175;-40
2023/05/10 06:59:09;;;;;;;3.00;1.80;;;13.80;99.90;;;;;;4996672;28;20175;-40
2023/05/10 07:01:34;;;;;;;3.27;2.00;;;14.00;99.90;;;;;;4995593;28;20180;-40
2023/05/10 07:04:00;;;;;;;1.70;1.60;;;14.10;99.90;;;;;;5002213;28;20577;-40
2023/05/10 07:06:27;;;;;;;3.53;1.80;;;14.20;34.30;;;;;;4985484;28;20489;-40
2023/05/10 07:08:52;;;;;;;2.50;1.90;;;14.20;1.00;;;;;;4983078;28;20191;-39
2023/05/10 07:11:18;;;;;;;2.87;1.90;;;14.20;1.00;;;;;;4998555;28;20864;-40
2023/05/10 07:13:46;;;;;;;3.23;1.77;;;14.30;1.00;;;;;;4997513;28;20576;-40
2023/05/10 07:16:11;;;;;;;3.10;2.10;;;14.30;1.00;;;;;;4997992;28;20180;-40
2023/05/10 07:18:37;;;;;;;1.60;1.30;;;14.30;1.00;;;;;;4999214;28;20427;-40
2023/05/10 07:21:03;;;;;;;2.63;2.03;;;14.40;1.00;;;;;;4998116;28;20230;-41
2023/05/10 07:23:29;;;;;;;2.37;1.77;;;14.40;1.00;;;;;;5000622;28;20188;-40
2023/05/10 07:25:57;;;;;;;2.00;1.57;;;14.30;99.90;;;;;;4998682;28;20430;-40
2023/05/10 07:28:24;;;;;;;2.17;1.80;;;14.30;99.90;;;;;;4999282;28;20584;-39
2023/05/10 07:30:50;;;;;;;2.50;1.30;;;14.50;1.00;;;;;;4999680;28;20967;-42
2023/05/10 07:33:16;;;;;;;3.30;1.83;;;14.70;99.90;;;;;;4998962;28;20441;-40
2023/05/10 07:35:42;;;;;;;2.83;1.50;;;14.80;99.90;;;;;;4998935;28;20805;-39
2023/05/10 07:38:08;;;;;;;4.03;1.77;;;15.00;99.90;;;;;;4998369;28;20848;-40
2023/05/10 07:40:33;;;;;;;2.30;1.77;;;15.10;99.90;;;;;;4997609;28;20419;-40
2023/05/10 07:43:01;;;;;;;1.83;1.53;;;15.20;1.00;;;;;;4999241;28;20309;-40
2023/05/10 07:45:27;;;;;;;3.60;1.70;;;15.20;99.90;;;;;;4998478;28;20493;-40
2023/05/10 07:47:53;;;;;;;2.57;1.60;;;15.30;99.90;;;;;;4997015;28;20453;-40
2023/05/10 07:50:19;;;;;;;1.50;1.30;;;15.40;99.90;;;;;;4998967;28;20465;-39
2023/05/10 07:52:44;;;;;;;3.80;1.53;;;15.40;1.00;;;;;;4999728;28;20659;-40
2023/05/10 07:55:10;;;;;;;1.30;1.07;;;15.40;1.00;;;;;;4999143;28;20720;-41
2023/05/10 07:57:36;;;;;;;1.93;1.10;;;15.50;84.90;;;;;;4997692;28;20215;-40
2023/05/10 08:00:02;;;;;;;1.37;0.97;;;15.60;99.90;;;;;;4996109;28;20190;-42
2023/05/10 08:02:28;;;;;;;1.50;1.30;;;15.70;1.00;;;;;;4981695;28;20220;-40
2023/05/10 08:04:53;;;;;;;1.40;1.07;;;15.70;99.90;;;;;;4998608;28;20462;-42
2023/05/10 08:07:19;;;;;;;1.83;1.07;;;16.00;1.00;;;;;;4999465;28;20206;-49
2023/05/10 08:09:45;;;;;;;1.43;1.03;;;16.20;1.00;;;;;;4996962;28;20294;-41
2023/05/10 08:12:11;;;;;;;1.40;0.97;;;16.10;1.00;;;;;;4995199;28;20270;-41
2023/05/10 08:14:37;;;;;;;1.13;0.87;;;16.10;99.90;;;;;;4995011;28;20419;-39
2023/05/10 08:17:03;;;;;;;1.80;1.27;;;16.10;48.80;;;;;;4994834;28;20192;-39
2023/05/10 08:19:29;;;;;;;3.10;1.00;;;16.30;1.00;;;;;;4994235;28;20274;-53
2023/05/10 08:21:57;;;;;;;1.27;0.60;;;16.40;1.00;;;;;;4994493;28;20517;-41
2023/05/10 08:24:23;;;;;;;1.40;0.70;;;16.40;1.00;;;;;;4993430;28;20188;-41
2023/05/10 08:26:49;;;;;;;2.27;1.13;;;16.40;1.00;;;;;;4996127;28;20500;-41
2023/05/10 08:29:15;;;;;;;1.47;0.70;;;16.50;99.90;;;;;;4995183;28;20188;-42
2023/05/10 08:31:41;;;;;;;2.57;0.60;;;16.20;99.90;;;;;;4979383;28;20203;-41
2023/05/10 08:34:06;;;;;;;3.70;0.87;;;16.10;36.20;;;;;;4997083;28;20411;-41
2023/05/10 08:36:32;;;;;;;1.20;0.97;;;16.00;1.00;;;;;;4996678;28;20518;-42
2023/05/10 08:38:58;;;;;;;1.63;0.90;;;16.00;1.00;;;;;;4997163;28;20550;-41
2023/05/10 08:41:25;;;;;;;5.10;0.80;;;15.90;99.90;;;;;;4996188;28;20425;-41
2023/05/10 08:43:52;;;;;;;0.97;0.67;;;15.80;1.00;;;;;;4997122;28;20474;-41
2023/05/10 08:46:19;;;;;;;1.17;0.70;;;15.70;99.90;;;;;;4997924;28;20497;-40
2023/05/10 08:48:45;;;;;;;1.00;0.50;;;15.90;1.00;;;;;;4995866;28;20848;-40
2023/05/10 08:51:16;;;;;;;1.40;0.73;;;16.10;1.00;;;;;;4995860;28;20463;-41
2023/05/10 08:53:42;;;;;;;0.97;0.70;;;16.30;99.90;;;;;;4989410;28;20498;-40
2023/05/10 08:56:07;;;;;;;1.90;0.60;;;16.30;98.50;;;;;;4991985;28;20535;-42
2023/05/10 08:58:33;;;;;;;0.90;0.67;;;16.20;1.00;;;;;;4994518;28;20369;-41
2023/05/10 09:01:00;;;;;;;1.17;0.70;;;16.40;99.90;;;;;;4994958;28;20206;-40
2023/05/10 09:03:26;;;;;;;2.23;1.10;;;16.20;1.00;;;;;;4996300;28;20180;-41
2023/05/10 09:05:52;;;;;;;2.07;0.80;;;16.10;1.00;;;;;;4995851;28;20529;-39
2023/05/10 09:08:18;;;;;;;1.17;0.70;;;16.20;1.00;;;;;;4995426;28;20875;-42
2023/05/10 09:10:46;;;;;;;1.00;0.60;;;16.30;1.00;;;;;;4996336;28;20211;-40
2023/05/10 09:13:15;;;;;;;2.33;0.97;;;16.10;70.90;;;;;;4995215;28;20731;-40
2023/05/10 09:15:41;;;;;;;1.30;0.90;;;16.00;5.40;;;;;;4995568;28;20987;-42
2023/05/10 09:18:06;;;;;;;1.10;0.67;;;15.90;99.90;;;;;;4996890;28;20513;-40
2023/05/10 09:20:32;;;;;;;3.00;0.60;;;16.20;99.90;;;;;;4996396;28;20410;-41
2023/05/10 09:22:58;;;;;;;2.93;0.77;;;16.20;99.90;;;;;;4994193;28;20526;-40
2023/05/10 09:25:23;;;;;;;0.80;0.50;;;16.00;99.90;;;;;;4993723;28;20455;-40
2023/05/10 09:27:49;;;;;;;2.37;0.90;;;15.90;99.90;;;;;;4993817;28;20431;-42
2023/05/10 09:30:25;;;;;;;3.27;0.63;;;16.20;99.90;;;;;;4992964;28;20617;-42
2023/05/10 09:32:51;;;;;;;1.00;0.60;;;16.30;55.30;;;;;;4993936;28;20441;-41
2023/05/10 09:35:19;;;;;;;2.03;0.57;;;16.30;1.00;;;;;;4992827;28;20419;-43
2023/05/10 09:37:50;;;;;;;1.00;0.60;;;16.00;1.00;;;;;;4994570;28;20542;-41
2023/05/10 09:40:20;;;;;;;1.10;0.73;;;16.10;1.00;;;;;;4995584;28;20489;-42
2023/05/10 09:42:55;;;;;;;1.47;0.73;;;16.20;1.00;;;;;;4994207;28;20769;-41
2023/05/10 09:45:25;;;;;;;1.40;0.60;;;16.40;1.00;;;;;;4994396;28;20411;-40
2023/05/10 09:47:51;;;;;;;1.40;0.60;;;16.70;99.90;;;;;;4994595;28;20451;-42
2023/05/10 09:50:16;;;;;;;1.27;0.60;;;16.90;99.90;;;;;;4993882;28;20568;-40
2023/05/10 09:53:03;;;;;;;1.00;0.40;;;16.90;99.90;;;;;;4993273;28;21081;-43
2023/05/10 09:55:49;;;;;;;1.20;0.43;;;16.90;99.90;;;;;;4992930;28;20445;-41
2023/05/10 09:58:14;;;;;;;2.00;0.77;;;17.00;99.90;;;;;;4994772;28;20415;-41
2023/05/10 10:00:42;;;;;;;1.30;0.50;;;17.40;99.90;;;;;;4994827;28;20556;-43
2023/05/10 10:03:16;;;;;;;0.77;0.40;;;17.50;99.90;;;;;;4993346;28;20171;-41
2023/05/10 10:05:43;;;;;;;1.87;0.60;;;17.80;99.90;;;;;;4993828;28;20769;-41
2023/05/10 10:08:09;;;;;;;1.23;0.60;;;17.90;99.90;;;;;;4993301;28;20712;-42
2023/05/10 10:10:35;;;;;;;1.10;0.50;;;18.50;98.00;;;;;;4992527;28;20471;-40
2023/05/10 10:13:02;;;;;;;1.70;0.43;;;18.90;39.00;;;;;;4995073;28;20427;-42
2023/05/10 10:15:27;;;;;;;3.70;0.70;;;19.10;1.00;;;;;;4994902;28;20329;-41
2023/05/10 10:17:53;;;;;;;1.20;0.60;;;19.30;1.00;;;;;;4995284;28;20537;-45
2023/05/10 10:20:21;;;;;;;1.13;0.63;;;19.60;1.00;;;;;;4995304;28;20184;-43
2023/05/10 10:22:48;;;;;;;1.57;0.80;;;19.60;1.00;;;;;;4977691;28;20446;-42
2023/05/10 10:25:14;;;;;;;1.53;0.70;;;19.60;1.00;;;;;;4994318;28;20431;-42
2023/05/10 10:27:52;;;;;;;1.03;0.60;;;20.10;1.00;;;;;;4993517;28;20419;-44
2023/05/10 10:30:42;;;;;;;1.60;0.70;;;20.20;1.00;;;;;;4993600;28;20489;-42
2023/05/10 10:33:39;;;;;;;1.27;0.70;;;20.00;1.00;;;;;;4992175;28;20899;-43
2023/05/10 10:36:05;;;;;;;1.30;0.63;;;19.70;1.00;;;;;;4974799;28;20430;-42
2023/05/10 10:38:59;;;;;;;1.23;0.70;;;19.80;1.00;;;;;;4993663;28;20914;-42
2023/05/10 10:41:34;;;;;;;0.93;0.67;;;20.10;1.00;;;;;;4978090;28;20790;-41
2023/05/10 10:44:22;;;;;;;1.93;0.90;;;19.70;1.00;;;;;;4993830;28;20415;-41
2023/05/10 10:47:11;;;;;;;2.30;1.20;;;19.30;1.00;;;;;;4995330;28;20423;-42
2023/05/10 10:49:57;;;;;;;1.00;0.60;;;18.50;1.00;;;;;;4994638;28;20482;-42
2023/05/10 10:52:41;;;;;;;1.60;0.67;;;17.70;1.00;;;;;;4976745;28;20478;-41
2023/05/10 10:55:09;;;;;;;3.30;0.83;;;17.10;1.00;;;;;;4994962;28;20423;-44
2023/05/10 10:57:43;;;;;;;1.90;0.70;;;16.30;1.00;;;;;;4994957;28;20425;-42
2023/05/10 11:00:28;;;;;;;4.87;0.87;;;15.90;1.00;;;;;;4994940;28;20418;-41
2023/05/10 11:03:07;;;;;;;3.30;1.20;;;15.60;1.00;;;;;;4994325;28;20899;-41
2023/05/10 11:05:40;;;;;;;3.40;0.90;;;15.60;1.00;;;;;;4993588;28;20411;-43
2023/05/10 11:08:10;;;;;;;1.67;1.00;;;15.50;1.00;;;;;;4994091;28;20498;-42
2023/05/10 11:10:36;;;;;;;2.20;1.17;;;15.60;1.00;;;;;;4994125;28;20470;-41
2023/05/10 11:13:11;;;;;;;1.43;0.70;;;15.50;10.00;;;;;;4959579;28;20427;-40
2023/05/10 11:15:38;;;;;;;2.00;0.90;;;15.30;10.40;;;;;;4992657;28;20411;-41
2023/05/10 11:18:20;;;;;;;2.00;0.80;;;15.30;64.70;;;;;;4992357;28;20426;-42
2023/05/10 11:20:55;;;;;;;1.77;0.90;;;15.50;99.90;;;;;;4992207;28;20671;-41
2023/05/10 11:23:21;;;;;;;1.30;0.87;;;15.80;99.90;;;;;;4991261;28;20423;-41
2023/05/10 11:25:49;;;;;;;2.23;0.70;;;16.00;78.90;;;;;;4973694;28;20495;-42
2023/05/10 11:28:17;;;;;;;1.53;0.87;;;16.20;39.00;;;;;;4963996;28;20471;-42
2023/05/10 11:30:44;;;;;;;1.30;0.40;;;16.30;33.20;;;;;;4973304;28;20494;-39
2023/05/10 11:33:11;;;;;;;1.83;0.87;;;16.40;16.90;;;;;;4970636;28;20514;-43
2023/05/10 11:35:40;;;;;;;3.20;0.77;;;16.70;29.00;;;;;;4968836;28;20496;-41
2023/05/10 11:38:07;;;;;;;2.73;1.83;;;16.80;8.90;;;;;;4985223;28;20433;-43
2023/05/10 11:40:34;;;;;;;1.30;0.60;;;17.10;9.00;;;;;;4989956;28;20431;-43
2023/05/10 11:43:00;;;;;;;1.23;0.70;;;16.60;1.00;;;;;;4989371;28;20711;-41
2023/05/10 11:45:27;;;;;;;1.67;0.77;;;16.80;1.00;;;;;;4977377;28;20427;-41
2023/05/10 11:47:53;;;;;;;2.17;0.90;;;17.20;1.00;;;;;;4977603;28;20524;-42
2023/05/10 11:50:19;;;;;;;1.20;0.60;;;17.60;1.00;;;;;;4978221;28;20482;-42
2023/05/10 11:52:45;;;;;;;3.17;0.80;;;17.80;1.00;;;;;;4994176;28;20215;-43
2023/05/10 11:55:10;;;;;;;2.53;1.40;;;17.90;1.00;;;;;;4996084;28;20310;-41
2023/05/10 11:57:38;;;;;;;1.70;1.00;;;18.00;1.00;;;;;;4978020;28;20674;-42
2023/05/10 12:00:05;;;;;;;4.10;1.00;;;18.20;1.00;;;;;;4997032;28;20400;-41
2023/05/10 12:02:30;;;;;;;4.23;1.50;;;18.30;1.00;;;;;;4994048;28;20491;-44
2023/05/10 12:04:56;;;;;;;4.63;1.43;;;18.80;1.00;;;;;;4994138;28;20531;-39
2023/05/10 12:07:22;;;;;;;1.40;0.80;;;19.10;1.00;;;;;;4994960;28;20214;-41
2023/05/10 12:10:07;;;;;;;1.77;0.80;;;18.70;1.00;;;;;;4996799;28;20231;-40
2023/05/10 12:12:41;;;;;;;1.30;0.83;;;18.80;1.00;;;;;;4996296;28;20180;-41
2023/05/10 12:15:22;;;;;;;3.10;1.20;;;18.30;1.00;;;;;;4996217;28;20497;-41
2023/05/10 12:17:49;;;;;;;2.30;1.10;;;17.90;1.00;;;;;;4977470;28;20438;-41
2023/05/10 12:20:24;;;;;;;2.60;0.97;;;17.90;1.00;;;;;;4977238;28;20423;-42
2023/05/10 12:22:52;;;;;;;2.20;0.70;;;17.70;1.00;;;;;;4994285;28;20434;-41
2023/05/10 12:25:18;;;;;;;3.00;1.20;;;17.50;1.00;;;;;;4976990;28;20466;-42
2023/05/10 12:27:52;;;;;;;1.93;0.80;;;17.30;1.00;;;;;;4994130;28;20434;-41
2023/05/10 12:30:22;;;;;;;2.87;1.07;;;16.70;1.00;;;;;;4993883;28;20474;-39
2023/05/10 12:32:48;;;;;;;4.90;1.20;;;16.70;1.00;;;;;;4994683;28;20437;-41
2023/05/10 12:35:14;;;;;;;3.00;1.20;;;16.80;1.00;;;;;;4995048;28;20411;-41
2023/05/10 12:37:40;;;;;;;2.73;1.10;;;16.70;1.00;;;;;;4995890;28;20439;-40
2023/05/10 12:40:07;;;;;;;5.47;1.20;;;16.40;1.00;;;;;;4996831;28;20195;-39
2023/05/10 12:42:35;;;;;;;1.90;1.00;;;16.40;1.00;;;;;;4979164;28;20431;-42
2023/05/10 12:45:02;;;;;;;2.80;1.10;;;16.40;1.00;;;;;;4996093;28;20435;-41
2023/05/10 12:47:28;;;;;;;2.30;1.17;;;16.50;1.00;;;;;;4997185;28;20438;-40
2023/05/10 12:49:53;;;;;;;2.20;1.10;;;16.50;1.00;;;;;;4978914;28;20478;-41
2023/05/10 12:52:20;;;;;;;4.10;1.00;;;16.50;1.00;;;;;;4994552;28;20435;-41
2023/05/10 12:54:46;;;;;;;1.83;1.17;;;17.00;1.00;;;;;;4993306;28;20435;-40
2023/05/10 12:57:13;;;;;;;2.70;1.10;;;17.20;1.00;;;;;;4995653;28;20435;-39
2023/05/10 12:59:39;;;;;;;3.30;1.10;;;16.90;1.00;;;;;;4993748;28;20427;-40